• Join FlightAware (Why Join?)
  • Login
  • US Flag 
03:09AM EDT


 

Airport Tracker/Info


-or-


 

Live Flight TrackerFlight Track Log ✈ RPA3331 ✈ 28-Dec-2013 ✈ KCLT - KILM

Flight Track Log - Related Links

Times and Time Zones

All times are in EST time to prevent confusion due to time zone crossing. See the RPA3331 flight status page for this flight to view local times or setup timezone preferences in your user account.

Time Position Orientation Groundspeed Altitude Reporting Facility
EST Latitude Longitude Course Direction KTS MPH feet Rate Location/Type
04:27PM 35.1972 -80.9381 88° East 144 166 1,600  Level Atlanta Center
04:28PM 35.1467 -80.9272 170° South 200 230 3,600 2,460 Climbing Atlanta Center
04:29PM 35.0994 -80.8731 137° Southeast 278 320 6,400 2,640 Climbing Atlanta Center
04:29PM 35.0928 -80.8581 119° Southeast 287 330 6,900 1,200 Climbing Atlanta Center
04:30PM 35.0986 -80.7639 86° East 276 318 8,000 1,500 Climbing Atlanta Center
04:31PM 35.1086 -80.6644 83° East 276 318 9,900 2,160 Climbing Atlanta Center
04:32PM 35.0354 -80.3478 88° East  Level Estimated
04:32PM 35.0889 -80.5589 103° East 288 331 12,400  Level Atlanta Center
04:33PM 35.0606 -80.4433 107° East 323 372 14,800 1,680 Climbing Atlanta Center
04:35PM 35.0100 -80.2400 107° East 390 449 17,000 780 Climbing Washington Center
04:36PM 34.9739 -80.0936 107° East 405 466 17,000  Level Washington Center
04:37PM 34.9428 -79.9703 107° East 410 472 17,000  Level Washington Center
04:38PM 34.9086 -79.8189 105° East 416 479 17,000  Level Washington Center
04:39PM 34.8711 -79.7006 111° Southeast 422 486 17,000  Level Washington Center
04:40PM 34.8239 -79.5514 111° Southeast 422 486 17,000  Level Washington Center
04:41PM 34.7783 -79.4178 113° Southeast 422 486 17,000  Level Washington Center
04:42PM 34.7344 -79.2842 112° Southeast 422 486 17,000  Level Washington Center
04:43PM 34.6906 -79.1508 112° Southeast 422 486 17,000 -360 Level Washington Center
04:44PM 34.6483 -79.0203 111° Southeast 422 486 16,300 -960 Descending Washington Center
04:45PM 34.6061 -78.8925 112° Southeast 414 476 15,200 -1,020 Descending Washington Center
04:46PM 34.5636 -78.7672 112° Southeast 407 468 14,300 -1,260 Descending Washington Center
04:47PM 34.5231 -78.6472 112° Southeast 394 453 12,700 -1,680 Descending Washington Center
04:48PM 34.4842 -78.5272 111° Southeast 383 441 11,000 -1,020 Descending Washington Center
04:49PM 34.4450 -78.4200 114° Southeast 370 426 10,700 -900 Descending Washington Center
04:50PM 34.4119 -78.3233 112° Southeast 333 383 9,300 -1,740 Descending Washington Center
04:51PM 34.3825 -78.2342 112° Southeast 305 351 7,300 -1,980 Descending Washington Center
04:52PM 34.3383 -78.1600 126° Southeast 282 325 5,400 -2,100 Descending Washington Center
04:53PM 34.2939 -78.0906 128° Southeast 270 311 3,200 -1,440 Descending Washington Center
04:54PM 34.2533 -78.0292 129° Southeast 250 288 2,600 -900 Descending Washington Center
04:55PM 34.2272 -77.9806 123° Southeast 209 241 1,400 -1,020 Descending Washington Center
04:56PM 34.2406 -77.9408 68° East 140 161 600 -840 Descending Washington Center